KRDG/RDG METAR and TAF weather

Enter ICAO airport designator
Station Type Date Time Source
KRDG METAR 2021/09/27 06:54 UTC NOAA

KRDG 270654Z AUTO 00000KT 10SM CLR 12/11 A3001 RMK AO2 SLP167 T01220106 $


Station Type Date Time Source
KRDG Decoded METAR 2021/09/27 06:54 UTC NOAA

READING REGIONAL AIRPORT, PA, United States (KRDG) 40-22N 075-58W 109M
Sep 27, 2021 - 02:54 AM EDT / 2021.09.27 0654 UTC
Wind: Calm:0
Visibility: 10 mile(s):0
Sky conditions: clear
Temperature: 54.0 F (12.2 C)
Dew Point: 51.1 F (10.6 C)
Relative Humidity: 89%
Pressure (altimeter): 30.01 in. Hg (1016 hPa)
ob: KRDG 270654Z AUTO 00000KT 10SM CLR 12/11 A3001 RMK AO2 SLP167 T01220106
cycle: 7

Station Type Date Time Source
KRDG TAF 2021/09/27 06:40 UTC NOAA

TAF KRDG 270538Z 2706/2806 VRB03KT P6SM SKC
FM271500 23011G21KT P6SM FEW080
FM272200 21009KT P6SM FEW250
FM280500 VRB04KT P6SM FEW200

Example: see airport list